Time;durP1;ratioP1;P1;durP2;ratioP2;P2;SDS_P1;SDS_P2;PMS_P1;PMS_P2;Temp;Humidity;BMP_temperature;BMP_pressure;BME280_temperature;BME280_humidity;BME280_pressure;Samples;Min_cycle;Max_cycle;Signal;HPM_P1;HPM_P2
2023/05/30 00:00:15;;;;;;;11.10;3.00;;;;;;;;;;5094801;28;20488;-73
2023/05/30 00:02:44;;;;;;;10.05;2.88;;;;;;;;;;5092712;28;20028;-73
2023/05/30 00:05:12;;;;;;;5.22;2.28;;;;;;;;;;5094057;28;20024;-73
2023/05/30 00:07:38;;;;;;;4.65;1.92;;;;;;;;;;5094946;28;20028;-73
2023/05/30 00:10:04;;;;;;;7.97;2.45;;;;;;;;;;5094511;28;20474;-73
2023/05/30 00:12:30;;;;;;;15.45;3.72;;;;;;;;;;5094422;28;20047;-73
2023/05/30 00:14:59;;;;;;;5.47;1.88;;;;;;;;;;5094337;28;20455;-73
2023/05/30 00:17:25;;;;;;;7.60;3.40;;;;;;;;;;5094633;28;20043;-73
2023/05/30 00:19:54;;;;;;;8.40;2.08;;;;;;;;;;5083307;28;20032;-73
2023/05/30 00:22:20;;;;;;;6.63;2.15;;;;;;;;;;5092529;28;20068;-73
2023/05/30 00:24:47;;;;;;;8.48;2.92;;;;;;;;;;5094105;28;20024;-73
2023/05/30 00:27:14;;;;;;;7.97;3.33;;;;;;;;;;5094381;28;20520;-73
2023/05/30 00:29:40;;;;;;;8.02;2.70;;;;;;;;;;5094789;28;20039;-73
2023/05/30 00:32:06;;;;;;;6.75;2.75;;;;;;;;;;5093960;28;20462;-72
2023/05/30 00:34:32;;;;;;;6.82;2.90;;;;;;;;;;5094041;28;20027;-73
2023/05/30 00:36:59;;;;;;;8.88;2.72;;;;;;;;;;5093923;28;20032;-73
2023/05/30 00:39:25;;;;;;;8.88;2.92;;;;;;;;;;5094114;28;20030;-73
2023/05/30 00:41:52;;;;;;;3.20;2.00;;;;;;;;;;5094185;28;20027;-73
2023/05/30 00:44:19;;;;;;;3.65;1.52;;;;;;;;;;5091572;28;20054;-73
2023/05/30 00:46:46;;;;;;;6.90;1.90;;;;;;;;;;5093744;28;20099;-73
2023/05/30 00:49:12;;;;;;;5.15;2.00;;;;;;;;;;5093717;28;20032;-73
2023/05/30 00:51:38;;;;;;;6.10;2.70;;;;;;;;;;5093828;28;20031;-73
2023/05/30 00:54:05;;;;;;;7.07;2.28;;;;;;;;;;5093618;28;20482;-73
2023/05/30 00:56:31;;;;;;;3.38;1.70;;;;;;;;;;5093883;28;20046;-73
2023/05/30 00:58:58;;;;;;;8.02;2.63;;;;;;;;;;5093642;28;20012;-72
2023/05/30 01:01:24;;;;;;;6.13;2.40;;;;;;;;;;5093559;28;20028;-73
2023/05/30 01:03:51;;;;;;;12.30;3.47;;;;;;;;;;5093393;28;20111;-73
2023/05/30 01:06:20;;;;;;;7.20;2.40;;;;;;;;;;5093483;28;20038;-73
2023/05/30 01:08:46;;;;;;;7.93;2.40;;;;;;;;;;5092307;28;20063;-73
2023/05/30 01:11:35;;;;;;;7.03;2.45;;;;;;;;;;5093275;28;20028;-73
2023/05/30 01:14:20;;;;;;;7.90;2.72;;;;;;;;;;5091905;28;20048;-72
2023/05/30 01:17:09;;;;;;;8.13;3.05;;;;;;;;;;5093054;28;20423;-72
2023/05/30 01:19:46;;;;;;;10.05;3.15;;;;;;;;;;5079988;28;20036;-73
2023/05/30 01:22:36;;;;;;;8.52;2.65;;;;;;;;;;5080071;28;20028;-73
2023/05/30 01:25:04;;;;;;;;;;;;;;;;;;5080607;28;20028;-73
2023/05/30 01:27:40;;;;;;;9.10;3.35;;;;;;;;;;5093246;28;19907;-72
2023/05/30 01:30:08;;;;;;;5.60;2.83;;;;;;;;;;5093503;28;20024;-73
2023/05/30 01:32:34;;;;;;;8.88;2.70;;;;;;;;;;5091603;28;20032;-73
2023/05/30 01:35:00;;;;;;;8.02;2.15;;;;;;;;;;5092812;28;20027;-73
2023/05/30 01:37:27;;;;;;;5.53;2.17;;;;;;;;;;5093250;28;20016;-73
2023/05/30 01:39:52;;;;;;;3.60;1.50;;;;;;;;;;5092816;28;20028;-73
2023/05/30 01:42:19;;;;;;;9.98;2.60;;;;;;;;;;5092008;28;20035;-72
2023/05/30 01:44:51;;;;;;;8.75;2.80;;;;;;;;;;5092614;28;20048;-73
2023/05/30 01:47:54;;;;;;;7.20;2.72;;;;;;;;;;5092693;28;20024;-73
2023/05/30 01:50:23;;;;;;;8.45;2.33;;;;;;;;;;4990492;28;20027;-72
2023/05/30 01:52:53;;;;;;;6.43;2.80;;;;;;;;;;5073952;28;20532;-73
2023/05/30 01:55:19;;;;;;;;;;;;;;;;;;5093006;28;20398;-73
2023/05/30 01:57:47;;;;;;;4.03;2.42;;;;;;;;;;5092524;28;20266;-72
2023/05/30 02:00:16;;;;;;;8.40;2.40;;;;;;;;;;5092230;28;20470;-73
2023/05/30 02:02:43;;;;;;;8.68;2.90;;;;;;;;;;5092399;28;20061;-72
2023/05/30 02:05:10;;;;;;;10.50;2.53;;;;;;;;;;5092197;28;20020;-72
2023/05/30 02:07:36;;;;;;;6.43;2.50;;;;;;;;;;5092060;28;20027;-73
2023/05/30 02:10:02;;;;;;;11.05;3.00;;;;;;;;;;5092038;28;20016;-73
2023/05/30 02:12:28;;;;;;;5.43;2.70;;;;;;;;;;5092470;28;20032;-73
2023/05/30 02:14:54;;;;;;;7.28;2.60;;;;;;;;;;5092164;28;20112;-73
2023/05/30 02:17:21;;;;;;;11.10;2.70;;;;;;;;;;5092352;28;20024;-73
2023/05/30 02:19:50;;;;;;;8.50;2.78;;;;;;;;;;5092167;28;20055;-73
2023/05/30 02:22:17;;;;;;;4.93;2.23;;;;;;;;;;5092222;28;20032;-73
2023/05/30 02:24:43;;;;;;;13.25;3.10;;;;;;;;;;5091836;28;20035;-73
2023/05/30 02:27:09;;;;;;;7.22;2.58;;;;;;;;;;5091982;28;20032;-73
2023/05/30 02:29:35;;;;;;;4.72;2.30;;;;;;;;;;5092385;28;20506;-74
2023/05/30 02:32:02;;;;;;;11.25;3.65;;;;;;;;;;5091864;28;20071;-73
2023/05/30 02:34:28;;;;;;;11.50;2.65;;;;;;;;;;5092387;28;20027;-73
2023/05/30 02:36:57;;;;;;;12.25;3.28;;;;;;;;;;5091504;28;20028;-73
2023/05/30 02:39:25;;;;;;;6.45;2.13;;;;;;;;;;5092350;28;20067;-73
2023/05/30 02:41:51;;;;;;;13.50;3.00;;;;;;;;;;5092142;28;20012;-73
2023/05/30 02:44:18;;;;;;;10.63;3.13;;;;;;;;;;5092315;28;20622;-73
2023/05/30 02:46:44;;;;;;;7.45;2.42;;;;;;;;;;5079805;28;20049;-73
2023/05/30 02:49:11;;;;;;;9.93;2.97;;;;;;;;;;5092032;28;20024;-73
2023/05/30 02:51:37;;;;;;;8.85;2.88;;;;;;;;;;5092336;28;20028;-72
2023/05/30 02:54:03;;;;;;;8.57;2.25;;;;;;;;;;5092047;28;20077;-73
2023/05/30 02:56:29;;;;;;;5.25;2.80;;;;;;;;;;5091980;28;20062;-73
2023/05/30 02:58:56;;;;;;;8.65;2.72;;;;;;;;;;5091848;28;20020;-73
2023/05/30 03:01:22;;;;;;;7.28;3.08;;;;;;;;;;5091940;28;20009;-72
2023/05/30 03:03:48;;;;;;;10.38;3.00;;;;;;;;;;5091715;28;20020;-73
2023/05/30 03:06:14;;;;;;;8.50;2.55;;;;;;;;;;5091883;28;20700;-73
2023/05/30 03:08:45;;;;;;;12.68;3.28;;;;;;;;;;5078176;28;20028;-73
2023/05/30 03:11:11;;;;;;;12.07;3.30;;;;;;;;;;5091667;28;20165;-73
2023/05/30 03:13:37;;;;;;;12.32;3.35;;;;;;;;;;5091762;28;20046;-73
2023/05/30 03:16:03;;;;;;;12.15;3.30;;;;;;;;;;5091552;28;20020;-73
2023/05/30 03:18:29;;;;;;;9.43;2.85;;;;;;;;;;5091656;28;20036;-73
2023/05/30 03:20:55;;;;;;;8.43;3.05;;;;;;;;;;5084494;28;20692;-72
2023/05/30 03:23:21;;;;;;;9.32;3.17;;;;;;;;;;5085516;28;20096;-73
2023/05/30 03:25:47;;;;;;;8.57;3.22;;;;;;;;;;5091390;28;20020;-73
2023/05/30 03:28:14;;;;;;;10.70;3.72;;;;;;;;;;5091249;28;20035;-73
2023/05/30 03:30:40;;;;;;;11.88;5.20;;;;;;;;;;5061188;28;20462;-73
2023/05/30 03:33:06;;;;;;;12.35;3.47;;;;;;;;;;5091626;28;20043;-73
2023/05/30 03:35:32;;;;;;;11.35;3.25;;;;;;;;;;5091618;28;20093;-73
2023/05/30 03:37:58;;;;;;;8.02;2.88;;;;;;;;;;5094238;28;20022;-73
2023/05/30 03:40:24;;;;;;;7.22;2.47;;;;;;;;;;5076984;28;20020;-73
2023/05/30 03:42:50;;;;;;;10.65;2.95;;;;;;;;;;5094286;28;20020;-73
2023/05/30 03:45:16;;;;;;;8.60;2.70;;;;;;;;;;5093896;28;20487;-73
2023/05/30 03:47:42;;;;;;;4.78;1.95;;;;;;;;;;5094959;28;20085;-73
2023/05/30 03:50:08;;;;;;;7.03;2.85;;;;;;;;;;5083183;28;20067;-73
2023/05/30 03:52:34;;;;;;;8.90;2.30;;;;;;;;;;5076805;28;20451;-73
2023/05/30 03:55:00;;;;;;;10.30;3.05;;;;;;;;;;5088347;28;20021;-73
2023/05/30 03:57:26;;;;;;;8.15;2.45;;;;;;;;;;5089060;28;20030;-73
2023/05/30 03:59:59;;;;;;;9.73;3.03;;;;;;;;;;5094642;28;20024;-73
2023/05/30 04:02:25;;;;;;;11.68;2.63;;;;;;;;;;5076207;28;20096;-73
2023/05/30 04:04:53;;;;;;;10.95;3.08;;;;;;;;;;5094526;28;20028;-73
2023/05/30 04:07:19;;;;;;;9.55;2.65;;;;;;;;;;5095030;28;20020;-73
2023/05/30 04:09:45;;;;;;;11.32;3.05;;;;;;;;;;5094832;28;20031;-73
2023/05/30 04:12:11;;;;;;;10.57;3.05;;;;;;;;;;5094397;28;20032;-73
2023/05/30 04:14:37;;;;;;;8.93;2.92;;;;;;;;;;5094278;28;20450;-73
2023/05/30 04:17:04;;;;;;;9.45;3.28;;;;;;;;;;5083741;28;20101;-73
2023/05/30 04:19:30;;;;;;;6.85;2.92;;;;;;;;;;5094562;28;20012;-73
2023/05/30 04:22:06;;;;;;;11.70;4.18;;;;;;;;;;5076064;28;20359;-73
2023/05/30 04:24:32;;;;;;;16.10;3.17;;;;;;;;;;5093624;28;20024;-73
2023/05/30 04:26:58;;;;;;;11.43;3.20;;;;;;;;;;5094286;28;20154;-73
2023/05/30 04:29:24;;;;;;;9.40;2.70;;;;;;;;;;5091815;28;20024;-73
2023/05/30 04:31:50;;;;;;;13.07;3.50;;;;;;;;;;5092084;28;20043;-73
2023/05/30 04:34:17;;;;;;;13.65;3.65;;;;;;;;;;5094204;28;20051;-72
2023/05/30 04:36:44;;;;;;;8.00;3.40;;;;;;;;;;5103951;28;20470;-72
2023/05/30 04:39:10;;;;;;;12.52;3.67;;;;;;;;;;5094087;28;20035;-72
2023/05/30 04:41:36;;;;;;;7.07;2.97;;;;;;;;;;5094085;28;20024;-72
2023/05/30 04:44:03;;;;;;;9.10;3.20;;;;;;;;;;5092729;28;20079;-73
2023/05/30 04:46:30;;;;;;;8.18;2.97;;;;;;;;;;5083993;28;20036;-72
2023/05/30 04:49:00;;;;;;;9.13;3.05;;;;;;;;;;5093075;28;20047;-72
2023/05/30 04:51:26;;;;;;;;;;;;;;;;;;5094386;28;20034;-72
2023/05/30 04:53:52;;;;;;;11.23;3.58;;;;;;;;;;5093833;28;19904;-72
2023/05/30 04:56:20;;;;;;;12.00;2.40;;;;;;;;;;5093849;28;20447;-73
2023/05/30 04:58:46;;;;;;;7.43;2.67;;;;;;;;;;5094055;28;20040;-73
2023/05/30 05:01:13;;;;;;;8.73;2.40;;;;;;;;;;5093614;28;20075;-73
2023/05/30 05:03:40;;;;;;;12.15;2.72;;;;;;;;;;5093543;28;20359;-72
2023/05/30 05:06:07;;;;;;;8.77;2.15;;;;;;;;;;5093730;28;20020;-72
2023/05/30 05:08:34;;;;;;;6.00;2.22;;;;;;;;;;5075282;28;20020;-72
2023/05/30 05:11:01;;;;;;;9.40;2.25;;;;;;;;;;5093292;28;20036;-73
2023/05/30 05:13:27;;;;;;;10.23;3.08;;;;;;;;;;5092100;28;20035;-72
2023/05/30 05:15:53;;;;;;;5.28;1.98;;;;;;;;;;5079051;28;20020;-72
2023/05/30 05:18:18;;;;;;;6.40;2.40;;;;;;;;;;5079580;28;20103;-72
2023/05/30 05:20:44;;;;;;;9.25;2.85;;;;;;;;;;5074175;28;20024;-73
2023/05/30 05:23:10;;;;;;;6.97;2.67;;;;;;;;;;5092216;28;20036;-72
2023/05/30 05:25:36;;;;;;;5.07;1.90;;;;;;;;;;5092691;28;20024;-72
2023/05/30 05:28:02;;;;;;;11.35;2.10;;;;;;;;;;5093138;28;20020;-72
2023/05/30 05:30:28;;;;;;;6.57;1.70;;;;;;;;;;5093012;28;20027;-73
2023/05/30 05:32:54;;;;;;;5.30;1.90;;;;;;;;;;5093028;28;20043;-72
2023/05/30 05:35:20;;;;;;;7.75;1.80;;;;;;;;;;5087100;28;20642;-72
2023/05/30 05:37:46;;;;;;;4.28;1.83;;;;;;;;;;5059761;28;20066;-72
2023/05/30 05:40:13;;;;;;;2.38;1.40;;;;;;;;;;5075639;28;20035;-72
2023/05/30 05:42:39;;;;;;;7.40;2.40;;;;;;;;;;5089111;28;20032;-72
2023/05/30 05:45:06;;;;;;;6.53;1.90;;;;;;;;;;5083199;28;20056;-72
2023/05/30 05:47:32;;;;;;;6.07;2.03;;;;;;;;;;5092728;28;20089;-72
2023/05/30 05:49:58;;;;;;;5.15;1.65;;;;;;;;;;5085834;28;20016;-73
2023/05/30 05:52:24;;;;;;;8.40;2.30;;;;;;;;;;5089345;28;20119;-72
2023/05/30 05:54:50;;;;;;;5.82;2.17;;;;;;;;;;5092850;28;20617;-72
2023/05/30 05:57:16;;;;;;;4.65;2.10;;;;;;;;;;5091662;28;20099;-73
2023/05/30 05:59:42;;;;;;;5.32;1.60;;;;;;;;;;5087756;28;20078;-72
2023/05/30 06:02:08;;;;;;;6.68;1.80;;;;;;;;;;5092411;28;20103;-73
2023/05/30 06:04:34;;;;;;;7.88;2.03;;;;;;;;;;5092669;28;20421;-72
2023/05/30 06:07:00;;;;;;;8.00;2.22;;;;;;;;;;5092843;28;20078;-73
2023/05/30 06:09:30;;;;;;;6.07;2.15;;;;;;;;;;5092588;28;20050;-73
2023/05/30 06:12:00;;;;;;;6.20;2.15;;;;;;;;;;5074374;28;20122;-73
2023/05/30 06:14:26;;;;;;;6.88;2.25;;;;;;;;;;5092688;28;20032;-72
2023/05/30 06:16:53;;;;;;;5.78;2.20;;;;;;;;;;5092763;28;20024;-73
2023/05/30 06:19:19;;;;;;;9.82;2.70;;;;;;;;;;5092463;28;20020;-73
2023/05/30 06:21:45;;;;;;;4.32;1.73;;;;;;;;;;5092389;28;20024;-73
2023/05/30 06:24:11;;;;;;;6.18;1.98;;;;;;;;;;5092298;28;20023;-73
2023/05/30 06:26:37;;;;;;;6.90;2.30;;;;;;;;;;5078828;28;20359;-73
2023/05/30 06:29:03;;;;;;;3.67;1.58;;;;;;;;;;5092136;28;20099;-73
2023/05/30 06:31:29;;;;;;;5.45;2.00;;;;;;;;;;5092027;28;20039;-72
2023/05/30 06:33:55;;;;;;;9.60;2.55;;;;;;;;;;5092326;28;20028;-73
2023/05/30 06:36:21;;;;;;;3.20;1.27;;;;;;;;;;5092170;28;20024;-73
2023/05/30 06:38:47;;;;;;;8.30;2.45;;;;;;;;;;5092290;28;20035;-73
2023/05/30 06:41:13;;;;;;;6.13;2.60;;;;;;;;;;5092111;28;20103;-72
2023/05/30 06:43:39;;;;;;;7.90;2.38;;;;;;;;;;5092008;28;20044;-73
2023/05/30 06:46:06;;;;;;;4.03;1.83;;;;;;;;;;5092106;28;20020;-73
2023/05/30 06:48:32;;;;;;;9.05;2.17;;;;;;;;;;5092150;28;20023;-73
2023/05/30 06:50:58;;;;;;;8.77;2.08;;;;;;;;;;5086582;28;20355;-73
2023/05/30 06:53:24;;;;;;;5.70;2.10;;;;;;;;;;5084185;28;20107;-73
2023/05/30 06:55:50;;;;;;;4.75;1.98;;;;;;;;;;5091947;28;20024;-73
2023/05/30 06:58:15;;;;;;;6.97;1.88;;;;;;;;;;5092066;28;20029;-73
2023/05/30 07:00:42;;;;;;;4.85;2.03;;;;;;;;;;5085872;28;20442;-73
2023/05/30 07:03:08;;;;;;;5.75;1.60;;;;;;;;;;5085074;28;20024;-73
2023/05/30 07:05:34;;;;;;;5.95;1.77;;;;;;;;;;5091888;28;20024;-73
2023/05/30 07:08:00;;;;;;;3.63;1.63;;;;;;;;;;5091950;28;20111;-73
2023/05/30 07:10:26;;;;;;;1.90;0.93;;;;;;;;;;5092170;28;20047;-73
2023/05/30 07:12:53;;;;;;;2.10;1.10;;;;;;;;;;5094469;28;20036;-73
2023/05/30 07:15:20;;;;;;;4.32;1.17;;;;;;;;;;5095669;28;20107;-73
2023/05/30 07:17:46;;;;;;;2.45;1.40;;;;;;;;;;5096188;28;20020;-73
2023/05/30 07:20:12;;;;;;;2.35;1.02;;;;;;;;;;5095565;28;20024;-72
2023/05/30 07:22:38;;;;;;;3.58;0.93;;;;;;;;;;5095698;28;20397;-73
2023/05/30 07:25:05;;;;;;;2.58;1.00;;;;;;;;;;5081959;28;20016;-73
2023/05/30 07:27:31;;;;;;;5.35;1.60;;;;;;;;;;5095419;28;20097;-73
2023/05/30 07:29:57;;;;;;;3.33;1.35;;;;;;;;;;5095518;28;20024;-73
2023/05/30 07:32:23;;;;;;;2.33;0.85;;;;;;;;;;5095342;28;20036;-73
2023/05/30 07:34:49;;;;;;;1.88;0.93;;;;;;;;;;5095419;28;20028;-73
2023/05/30 07:37:15;;;;;;;3.08;1.33;;;;;;;;;;5096001;28;20379;-73
2023/05/30 07:39:41;;;;;;;4.70;1.20;;;;;;;;;;5095834;28;20462;-73
2023/05/30 07:42:07;;;;;;;6.53;1.10;;;;;;;;;;5096096;28;20475;-73
2023/05/30 07:44:33;;;;;;;1.27;0.65;;;;;;;;;;5095696;28;20055;-73
2023/05/30 07:47:00;;;;;;;2.83;1.05;;;;;;;;;;5095563;28;20405;-73
2023/05/30 07:49:26;;;;;;;1.77;0.95;;;;;;;;;;5095605;28;20016;-73
2023/05/30 07:51:52;;;;;;;1.85;1.20;;;;;;;;;;5095460;28;20438;-73
2023/05/30 07:54:18;;;;;;;1.98;0.80;;;;;;;;;;5095433;28;20020;-73
2023/05/30 07:56:44;;;;;;;3.65;1.15;;;;;;;;;;5095438;28;20035;-73
2023/05/30 07:59:10;;;;;;;5.82;1.30;;;;;;;;;;5077071;28;20481;-73
2023/05/30 08:01:36;;;;;;;2.75;1.13;;;;;;;;;;5095865;28;20115;-73
2023/05/30 08:04:02;;;;;;;1.67;0.85;;;;;;;;;;5081838;28;20413;-73
2023/05/30 08:06:28;;;;;;;2.47;0.65;;;;;;;;;;5095510;28;20104;-73
2023/05/30 08:08:54;;;;;;;1.38;0.60;;;;;;;;;;5095156;28;20048;-73
2023/05/30 08:11:20;;;;;;;2.25;0.57;;;;;;;;;;5095035;28;20042;-73
2023/05/30 08:13:47;;;;;;;0.47;0.30;;;;;;;;;;5094961;28;20604;-73
2023/05/30 08:16:14;;;;;;;3.00;0.50;;;;;;;;;;5095155;28;20105;-73
2023/05/30 08:18:41;;;;;;;0.70;0.47;;;;;;;;;;5095018;28;20032;-73
2023/05/30 08:21:08;;;;;;;1.95;0.60;;;;;;;;;;5094627;28;20028;-73
2023/05/30 08:23:34;;;;;;;1.80;0.65;;;;;;;;;;5093609;28;20040;-73
2023/05/30 08:26:00;;;;;;;0.57;0.45;;;;;;;;;;5094211;28;20020;-73
2023/05/30 08:28:26;;;;;;;1.20;0.45;;;;;;;;;;5094217;28;20081;-73
2023/05/30 08:30:58;;;;;;;0.60;0.40;;;;;;;;;;5094612;28;20058;-73
2023/05/30 08:33:25;;;;;;;0.70;0.60;;;;;;;;;;5095006;28;20055;-73
2023/05/30 08:35:51;;;;;;;1.00;0.50;;;;;;;;;;5095156;28;20023;-75
2023/05/30 08:38:17;;;;;;;0.68;0.60;;;;;;;;;;5077473;28;20030;-74
2023/05/30 08:40:44;;;;;;;0.68;0.38;;;;;;;;;;5094908;28;20028;-74
2023/05/30 08:43:10;;;;;;;0.55;0.43;;;;;;;;;;5094570;28;20036;-74
2023/05/30 08:45:37;;;;;;;2.33;0.60;;;;;;;;;;5087497;28;20051;-73
2023/05/30 08:48:03;;;;;;;1.80;0.60;;;;;;;;;;5074373;28;20048;-73
2023/05/30 08:50:31;;;;;;;1.35;0.47;;;;;;;;;;5076218;28;20031;-73
2023/05/30 08:52:58;;;;;;;0.82;0.40;;;;;;;;;;5094096;28;20076;-73
2023/05/30 08:55:31;;;;;;;0.60;0.40;;;;;;;;;;5094025;28;20028;-73
2023/05/30 08:58:18;;;;;;;1.98;0.38;;;;;;;;;;5094156;28;20066;-72
2023/05/30 09:00:45;;;;;;;1.98;0.50;;;;;;;;;;5094692;28;20102;-73
2023/05/30 09:03:11;;;;;;;0.75;0.30;;;;;;;;;;5094468;28;20032;-73
2023/05/30 09:05:39;;;;;;;0.30;0.30;;;;;;;;;;5094565;28;20028;-73
2023/05/30 09:08:06;;;;;;;1.40;0.40;;;;;;;;;;5093983;28;20028;-73
2023/05/30 09:10:36;;;;;;;2.58;0.57;;;;;;;;;;5094122;28;20020;-73
2023/05/30 09:13:02;;;;;;;0.32;0.30;;;;;;;;;;5075693;28;20382;-73
2023/05/30 09:15:28;;;;;;;3.63;0.80;;;;;;;;;;5088236;28;20107;-73
2023/05/30 09:17:55;;;;;;;3.00;0.77;;;;;;;;;;5073307;28;20021;-73
2023/05/30 09:20:22;;;;;;;2.10;0.70;;;;;;;;;;5079271;28;20028;-73
2023/05/30 09:22:48;;;;;;;1.00;0.60;;;;;;;;;;5093850;28;20108;-73
2023/05/30 09:25:33;;;;;;;3.97;0.82;;;;;;;;;;5093237;28;20102;-73
2023/05/30 09:28:00;;;;;;;1.65;0.90;;;;;;;;;;5105251;28;20041;-73
2023/05/30 09:30:26;;;;;;;0.98;0.70;;;;;;;;;;5104951;28;20024;-73
2023/05/30 09:33:04;;;;;;;2.17;1.00;;;;;;;;;;5092929;28;20044;-73
2023/05/30 09:35:30;;;;;;;2.50;0.68;;;;;;;;;;5092830;28;20062;-73
2023/05/30 09:38:03;;;;;;;2.25;0.50;;;;;;;;;;5093126;28;20067;-73
2023/05/30 09:40:30;;;;;;;1.33;0.60;;;;;;;;;;5093287;28;20035;-73
2023/05/30 09:42:56;;;;;;;0.68;0.40;;;;;;;;;;5093009;28;20032;-73
2023/05/30 09:45:23;;;;;;;0.40;0.40;;;;;;;;;;5091786;28;20057;-73
2023/05/30 09:47:49;;;;;;;0.82;0.52;;;;;;;;;;5093040;28;20059;-73
2023/05/30 09:50:16;;;;;;;0.50;0.50;;;;;;;;;;5093233;28;20384;-73
2023/05/30 09:52:43;;;;;;;1.27;1.00;;;;;;;;;;5092846;28;20115;-74
2023/05/30 09:55:09;;;;;;;1.15;0.70;;;;;;;;;;5093111;28;20088;-74
2023/05/30 09:57:36;;;;;;;1.02;0.93;;;;;;;;;;5092849;28;20016;-74
2023/05/30 10:00:11;;;;;;;0.52;0.30;;;;;;;;;;5092959;28;20016;-74
2023/05/30 10:02:40;;;;;;;0.43;0.40;;;;;;;;;;5092903;28;20435;-74
2023/05/30 10:05:22;;;;;;;1.90;0.70;;;;;;;;;;5074590;28;20031;-74
2023/05/30 10:07:50;;;;;;;0.82;0.60;;;;;;;;;;5091992;28;20024;-73
2023/05/30 10:10:16;;;;;;;2.15;0.60;;;;;;;;;;5092769;28;20105;-74
2023/05/30 10:12:43;;;;;;;1.50;0.88;;;;;;;;;;5092505;28;20028;-74
2023/05/30 10:15:11;;;;;;;0.85;0.52;;;;;;;;;;5092608;28;20028;-74
2023/05/30 10:17:40;;;;;;;1.67;0.70;;;;;;;;;;5092806;28;20012;-73
2023/05/30 10:20:08;;;;;;;1.35;0.47;;;;;;;;;;5092646;28;20016;-74
2023/05/30 10:22:40;;;;;;;0.80;0.40;;;;;;;;;;5092546;28;20666;-74
2023/05/30 10:25:08;;;;;;;2.53;0.40;;;;;;;;;;5092490;28;20012;-74
2023/05/30 10:27:38;;;;;;;1.42;0.70;;;;;;;;;;5092212;28;20028;-74
2023/05/30 10:30:05;;;;;;;0.55;0.55;;;;;;;;;;5092217;28;20058;-75
2023/05/30 10:32:34;;;;;;;0.35;0.20;;;;;;;;;;5092228;28;20086;-74
2023/05/30 10:35:06;;;;;;;2.20;0.43;;;;;;;;;;5092655;28;20042;-74
2023/05/30 10:37:32;;;;;;;0.90;0.60;;;;;;;;;;5092402;28;20103;-74
2023/05/30 10:40:21;;;;;;;0.98;0.57;;;;;;;;;;5092535;28;20058;-75
2023/05/30 10:42:53;;;;;;;1.30;0.80;;;;;;;;;;5092399;28;20051;-75
2023/05/30 10:45:21;;;;;;;1.65;0.77;;;;;;;;;;5091462;28;20048;-74
2023/05/30 10:47:57;;;;;;;0.93;0.73;;;;;;;;;;5095709;28;20032;-74
2023/05/30 10:50:28;;;;;;;0.70;0.68;;;;;;;;;;5096588;28;20028;-74
2023/05/30 10:52:55;;;;;;;2.15;0.88;;;;;;;;;;5096217;28;20495;-74
2023/05/30 10:55:21;;;;;;;0.65;0.40;;;;;;;;;;5096861;28;20020;-75
2023/05/30 10:57:47;;;;;;;1.27;0.70;;;;;;;;;;5096257;28;20027;-75
2023/05/30 11:00:24;;;;;;;0.25;0.25;;;;;;;;;;5096320;28;20024;-74
2023/05/30 11:02:51;;;;;;;1.35;0.82;;;;;;;;;;5076009;28;20101;-74
2023/05/30 11:05:30;;;;;;;0.82;0.57;;;;;;;;;;5092682;28;20467;-74
2023/05/30 11:07:57;;;;;;;0.65;0.57;;;;;;;;;;5081299;28;20081;-74
2023/05/30 11:10:27;;;;;;;1.40;0.93;;;;;;;;;;5078328;28;20474;-75
2023/05/30 11:12:53;;;;;;;0.75;0.60;;;;;;;;;;5091953;28;20064;-75
2023/05/30 11:15:31;;;;;;;0.45;0.40;;;;;;;;;;5079738;28;20020;-74
2023/05/30 11:17:57;;;;;;;0.90;0.40;;;;;;;;;;5097082;28;20024;-75
2023/05/30 11:20:23;;;;;;;0.63;0.60;;;;;;;;;;5096523;28;20176;-75
2023/05/30 11:23:01;;;;;;;1.48;0.68;;;;;;;;;;5096600;28;20039;-75
2023/05/30 11:25:29;;;;;;;0.55;0.55;;;;;;;;;;5096717;28;20024;-75
2023/05/30 11:28:00;;;;;;;2.25;0.57;;;;;;;;;;5096351;28;20012;-75
2023/05/30 11:30:29;;;;;;;1.30;0.60;;;;;;;;;;5096339;28;20073;-75
2023/05/30 11:32:58;;;;;;;0.20;0.20;;;;;;;;;;5077849;28;20085;-74
2023/05/30 11:35:24;;;;;;;0.98;0.35;;;;;;;;;;5096263;28;20012;-74
2023/05/30 11:37:50;;;;;;;0.40;0.30;;;;;;;;;;5096081;28;20021;-74
2023/05/30 11:40:16;;;;;;;1.10;0.57;;;;;;;;;;5096036;28;20028;-74
2023/05/30 11:42:43;;;;;;;1.30;0.40;;;;;;;;;;5096344;28;20550;-74
2023/05/30 11:45:09;;;;;;;0.85;0.75;;;;;;;;;;5094424;28;20056;-74
2023/05/30 11:47:36;;;;;;;0.80;0.60;;;;;;;;;;5095792;28;20081;-74
2023/05/30 11:50:02;;;;;;;1.30;0.50;;;;;;;;;;5086854;28;20024;-74
2023/05/30 11:52:28;;;;;;;2.10;0.50;;;;;;;;;;5075418;28;20032;-74
2023/05/30 11:55:00;;;;;;;1.05;0.73;;;;;;;;;;5075639;28;20142;-74
2023/05/30 11:57:27;;;;;;;1.25;0.80;;;;;;;;;;5078726;28;20020;-74
2023/05/30 11:59:54;;;;;;;0.80;0.70;;;;;;;;;;5095197;28;20031;-74
2023/05/30 12:02:20;;;;;;;0.80;0.70;;;;;;;;;;5094972;28;20066;-74
2023/05/30 12:04:49;;;;;;;2.00;0.77;;;;;;;;;;5095021;28;20055;-74
2023/05/30 12:07:16;;;;;;;1.70;1.00;;;;;;;;;;5094942;28;20023;-74
2023/05/30 12:09:42;;;;;;;1.40;0.65;;;;;;;;;;5095239;28;20111;-74
2023/05/30 12:12:08;;;;;;;1.42;0.80;;;;;;;;;;5094833;28;20107;-74
2023/05/30 12:14:38;;;;;;;0.95;0.50;;;;;;;;;;5094869;28;20016;-74
2023/05/30 12:17:15;;;;;;;1.70;0.82;;;;;;;;;;5094693;28;20035;-75
2023/05/30 12:19:42;;;;;;;1.33;0.65;;;;;;;;;;5107312;28;20035;-74
2023/05/30 12:22:09;;;;;;;1.55;0.60;;;;;;;;;;5114902;28;20055;-75
2023/05/30 12:24:36;;;;;;;0.98;0.75;;;;;;;;;;5114955;28;20020;-75
2023/05/30 12:27:05;;;;;;;1.75;0.73;;;;;;;;;;5114992;28;20015;-75
2023/05/30 12:29:32;;;;;;;0.60;0.60;;;;;;;;;;5115097;28;20054;-74
2023/05/30 12:31:59;;;;;;;2.05;0.50;;;;;;;;;;5095223;28;20656;-75
2023/05/30 12:34:25;;;;;;;0.88;0.70;;;;;;;;;;5094075;28;20035;-74
2023/05/30 12:36:57;;;;;;;1.65;0.50;;;;;;;;;;5093959;28;20024;-75
2023/05/30 12:39:23;;;;;;;1.77;0.95;;;;;;;;;;5094402;28;20451;-74
2023/05/30 12:41:49;;;;;;;1.10;0.80;;;;;;;;;;5094336;28;20031;-74
2023/05/30 12:44:18;;;;;;;2.22;1.35;;;;;;;;;;5094342;28;20169;-74
2023/05/30 12:46:44;;;;;;;2.85;1.02;;;;;;;;;;5094198;28;20065;-75
2023/05/30 12:49:10;;;;;;;2.45;1.25;;;;;;;;;;5075917;28;20097;-75
2023/05/30 12:51:37;;;;;;;1.67;0.77;;;;;;;;;;5093878;28;20032;-74
2023/05/30 12:54:03;;;;;;;2.35;0.90;;;;;;;;;;5094017;28;20027;-75
2023/05/30 12:56:29;;;;;;;3.50;1.27;;;;;;;;;;5093925;28;20031;-74
2023/05/30 12:58:55;;;;;;;1.58;0.55;;;;;;;;;;5092348;28;20103;-74
2023/05/30 13:01:22;;;;;;;1.10;0.70;;;;;;;;;;5081956;28;20124;-74
2023/05/30 13:03:48;;;;;;;1.83;1.20;;;;;;;;;;5093726;28;20354;-74
2023/05/30 13:06:14;;;;;;;1.50;0.90;;;;;;;;;;5094047;28;20367;-74
2023/05/30 13:08:40;;;;;;;0.95;0.45;;;;;;;;;;5093451;28;20409;-74
2023/05/30 13:11:06;;;;;;;0.95;0.57;;;;;;;;;;5093332;28;20020;-75
2023/05/30 13:13:32;;;;;;;3.92;0.75;;;;;;;;;;5093694;28;20025;-75
2023/05/30 13:15:58;;;;;;;1.30;0.57;;;;;;;;;;5093584;28;20028;-74
2023/05/30 13:18:24;;;;;;;0.80;0.68;;;;;;;;;;5093580;28;20046;-74
2023/05/30 13:20:50;;;;;;;1.90;0.50;;;;;;;;;;5093569;28;20031;-75
2023/05/30 13:23:16;;;;;;;1.00;0.90;;;;;;;;;;5075317;28;20024;-74
2023/05/30 13:25:42;;;;;;;0.52;0.40;;;;;;;;;;5093438;28;20031;-74
2023/05/30 13:28:08;;;;;;;0.50;0.40;;;;;;;;;;5093688;28;20024;-75
2023/05/30 13:30:38;;;;;;;0.70;0.40;;;;;;;;;;5093627;28;20158;-75
2023/05/30 13:33:04;;;;;;;0.60;0.60;;;;;;;;;;5093184;28;20027;-75
2023/05/30 13:35:30;;;;;;;0.75;0.50;;;;;;;;;;5093541;28;20035;-75
2023/05/30 13:37:57;;;;;;;0.80;0.70;;;;;;;;;;5093054;28;20028;-74
2023/05/30 13:40:23;;;;;;;1.40;0.85;;;;;;;;;;5093625;28;20439;-74
2023/05/30 13:42:49;;;;;;;1.27;0.88;;;;;;;;;;5061586;28;20039;-75
2023/05/30 13:45:17;;;;;;;2.08;1.17;;;;;;;;;;5091629;28;20063;-75
2023/05/30 13:47:43;;;;;;;2.10;1.00;;;;;;;;;;5093428;28;20016;-74
2023/05/30 13:50:09;;;;;;;1.38;1.05;;;;;;;;;;5093108;28;20373;-75
2023/05/30 13:52:35;;;;;;;2.15;0.90;;;;;;;;;;5093030;28;20036;-75
2023/05/30 13:55:01;;;;;;;1.52;1.00;;;;;;;;;;5074579;28;20032;-74
2023/05/30 13:57:27;;;;;;;1.92;0.98;;;;;;;;;;5092826;28;20020;-74
2023/05/30 13:59:53;;;;;;;1.25;1.10;;;;;;;;;;5092927;28;20020;-74
2023/05/30 14:02:21;;;;;;;1.75;0.98;;;;;;;;;;5092655;28;20024;-74
2023/05/30 14:04:47;;;;;;;2.40;1.08;;;;;;;;;;5093197;28;20024;-74
2023/05/30 14:07:13;;;;;;;1.63;0.90;;;;;;;;;;5092790;28;20352;-74
2023/05/30 14:09:39;;;;;;;1.92;0.68;;;;;;;;;;5092719;28;20032;-75
2023/05/30 14:12:06;;;;;;;1.02;0.77;;;;;;;;;;5092686;28;20081;-74
2023/05/30 14:14:32;;;;;;;0.57;0.50;;;;;;;;;;5092920;28;20023;-75
2023/05/30 14:17:02;;;;;;;1.70;0.80;;;;;;;;;;5092921;28;20028;-74
2023/05/30 14:19:29;;;;;;;0.93;0.83;;;;;;;;;;5092771;28;20049;-74
2023/05/30 14:21:55;;;;;;;1.77;0.98;;;;;;;;;;5091901;28;20102;-74
2023/05/30 14:24:21;;;;;;;1.17;0.90;;;;;;;;;;5092429;28;20032;-75
2023/05/30 14:26:50;;;;;;;2.72;0.77;;;;;;;;;;5092620;28;20017;-74
2023/05/30 14:29:15;;;;;;;2.10;0.90;;;;;;;;;;5092356;28;20028;-74
2023/05/30 14:31:41;;;;;;;1.75;0.60;;;;;;;;;;5092224;28;20661;-74
2023/05/30 14:34:07;;;;;;;2.05;0.65;;;;;;;;;;5092307;28;20023;-74
2023/05/30 14:36:34;;;;;;;4.03;0.65;;;;;;;;;;5092343;28;20047;-74
2023/05/30 14:38:59;;;;;;;1.27;0.60;;;;;;;;;;5092410;28;20024;-74
2023/05/30 14:41:26;;;;;;;1.52;1.00;;;;;;;;;;5092169;28;20619;-75
2023/05/30 14:43:52;;;;;;;1.02;0.77;;;;;;;;;;5090797;28;20026;-75